Time;durP1;ratioP1;P1;durP2;ratioP2;P2;SDS_P1;SDS_P2;PMS_P1;PMS_P2;Temp;Humidity;BMP_temperature;BMP_pressure;BME280_temperature;BME280_humidity;BME280_pressure;Samples;Min_cycle;Max_cycle;Signal;HPM_P1;HPM_P2
2022/02/26 00:00:19;;;;;;;22.97;5.00;;;;;;;;;;5089903;28;20196;-69
2022/02/26 00:02:45;;;;;;;22.17;4.90;;;;;;;;;;5082092;28;20207;-69
2022/02/26 00:05:10;;;;;;;17.43;5.70;;;;;;;;;;5086527;28;20165;-69
2022/02/26 00:07:35;;;;;;;20.37;5.87;;;;;;;;;;5090804;28;20655;-69
2022/02/26 00:10:01;;;;;;;21.77;5.60;;;;;;;;;;5089937;28;20195;-70
2022/02/26 00:12:26;;;;;;;12.10;4.73;;;;;;;;;;5090679;28;20176;-70
2022/02/26 00:14:51;;;;;;;20.60;5.27;;;;;;;;;;5093015;28;20172;-69
2022/02/26 00:17:16;;;;;;;18.23;6.17;;;;;;;;;;5091191;28;20253;-69
2022/02/26 00:19:41;;;;;;;21.87;5.23;;;;;;;;;;5090910;28;20230;-70
2022/02/26 00:22:07;;;;;;;18.60;6.07;;;;;;;;;;5090679;28;20286;-69
2022/02/26 00:24:32;;;;;;;23.70;6.77;;;;;;;;;;5090590;28;20168;-69
2022/02/26 00:26:57;;;;;;;18.73;5.80;;;;;;;;;;5090721;28;20619;-69
2022/02/26 00:29:22;;;;;;;13.30;5.73;;;;;;;;;;5090628;28;20180;-70
2022/02/26 00:31:48;;;;;;;19.10;6.03;;;;;;;;;;5090791;28;20266;-69
2022/02/26 00:34:13;;;;;;;18.80;6.30;;;;;;;;;;5090497;28;20247;-70
2022/02/26 00:36:38;;;;;;;17.87;7.03;;;;;;;;;;5088363;28;20184;-69
2022/02/26 00:39:04;;;;;;;16.73;6.43;;;;;;;;;;5090284;28;20176;-69
2022/02/26 00:41:30;;;;;;;18.60;5.70;;;;;;;;;;5090809;28;20192;-69
2022/02/26 00:43:55;;;;;;;24.43;8.27;;;;;;;;;;5090933;28;20204;-69
2022/02/26 00:46:20;;;;;;;12.67;5.57;;;;;;;;;;5091073;28;20541;-69
2022/02/26 00:51:29;;;;;;;11.03;5.73;;;;;;;;;;5090501;28;20248;-69
2022/02/26 00:53:54;;;;;;;15.73;5.43;;;;;;;;;;5090986;28;20176;-69
2022/02/26 00:56:20;;;;;;;24.03;5.90;;;;;;;;;;5090554;28;20634;-69
2022/02/26 00:58:45;;;;;;;16.80;5.03;;;;;;;;;;5090997;28;20181;-69
2022/02/26 01:01:10;;;;;;;16.63;5.77;;;;;;;;;;5090658;28;20195;-69
2022/02/26 01:03:35;;;;;;;22.50;6.63;;;;;;;;;;5090689;28;20652;-69
2022/02/26 01:06:01;;;;;;;23.87;8.57;;;;;;;;;;5079279;28;20177;-69
2022/02/26 01:08:26;;;;;;;21.57;7.10;;;;;;;;;;5080565;28;20711;-69
2022/02/26 01:10:51;;;;;;;29.37;7.83;;;;;;;;;;5090613;28;20219;-69
2022/02/26 01:13:16;;;;;;;23.07;7.03;;;;;;;;;;5087999;28;20178;-69
2022/02/26 01:15:42;;;;;;;17.10;7.30;;;;;;;;;;5093376;28;20201;-69
2022/02/26 01:18:07;;;;;;;21.10;6.97;;;;;;;;;;5093073;28;20208;-69
2022/02/26 01:20:32;;;;;;;16.70;7.47;;;;;;;;;;5092858;28;20708;-69
2022/02/26 01:22:57;;;;;;;15.73;7.47;;;;;;;;;;5094506;28;20169;-69
2022/02/26 01:25:23;;;;;;;24.17;8.17;;;;;;;;;;5090921;28;20184;-70
2022/02/26 01:27:48;;;;;;;22.77;8.43;;;;;;;;;;5093917;28;20183;-70
2022/02/26 01:30:13;;;;;;;14.53;6.70;;;;;;;;;;5092695;28;20265;-70
2022/02/26 01:32:41;;;;;;;17.33;7.17;;;;;;;;;;5093246;28;20200;-70
2022/02/26 01:35:07;;;;;;;19.63;7.37;;;;;;;;;;5091355;28;20287;-68
2022/02/26 01:37:32;;;;;;;17.67;7.57;;;;;;;;;;5089569;28;20286;-68
2022/02/26 01:39:58;;;;;;;15.17;7.33;;;;;;;;;;5093457;28;20218;-69
2022/02/26 01:42:23;;;;;;;19.80;7.33;;;;;;;;;;5093414;28;20184;-69
2022/02/26 01:44:49;;;;;;;25.90;8.17;;;;;;;;;;5092330;28;20259;-69
2022/02/26 01:47:14;;;;;;;17.23;6.53;;;;;;;;;;5093006;28;20222;-71
2022/02/26 01:49:40;;;;;;;17.57;6.83;;;;;;;;;;5092936;28;20177;-69
2022/02/26 01:52:06;;;;;;;18.07;6.67;;;;;;;;;;5093075;28;20662;-69
2022/02/26 01:54:31;;;;;;;17.43;6.97;;;;;;;;;;5091804;28;20718;-69
2022/02/26 01:56:56;;;;;;;18.17;7.23;;;;;;;;;;5093133;28;20207;-69
2022/02/26 01:59:21;;;;;;;10.20;7.33;;;;;;;;;;5092952;28;20183;-69
2022/02/26 02:01:47;;;;;;;10.97;7.00;;;;;;;;;;5093818;28;20216;-69
2022/02/26 02:04:14;;;;;;;12.53;5.93;;;;;;;;;;5091755;28;20255;-69
2022/02/26 02:06:39;;;;;;;19.30;7.53;;;;;;;;;;5090598;28;20168;-69
2022/02/26 02:09:05;;;;;;;15.57;7.87;;;;;;;;;;5087505;28;20187;-69
2022/02/26 02:11:31;;;;;;;22.57;7.60;;;;;;;;;;5090969;28;20200;-69
2022/02/26 02:13:56;;;;;;;20.23;8.60;;;;;;;;;;5088732;28;20183;-69
2022/02/26 02:16:21;;;;;;;12.57;7.70;;;;;;;;;;5089731;28;20203;-69
2022/02/26 02:18:46;;;;;;;18.30;7.23;;;;;;;;;;5087520;28;20231;-69
2022/02/26 02:21:12;;;;;;;16.00;7.00;;;;;;;;;;5089219;28;20676;-69
2022/02/26 02:23:37;;;;;;;21.30;7.80;;;;;;;;;;5088453;28;20187;-69
2022/02/26 02:26:02;;;;;;;19.43;7.70;;;;;;;;;;5079546;28;20557;-69
2022/02/26 02:28:28;;;;;;;22.17;7.93;;;;;;;;;;5089977;28;20234;-69
2022/02/26 02:30:53;;;;;;;17.27;7.70;;;;;;;;;;5079167;22;20252;-66
2022/02/26 02:33:19;;;;;;;18.97;8.23;;;;;;;;;;5068898;28;20185;-69
2022/02/26 02:35:44;;;;;;;18.73;7.67;;;;;;;;;;5068756;28;20181;-66
2022/02/26 02:38:14;;;;;;;16.87;7.53;;;;;;;;;;5049825;28;20209;-67
2022/02/26 02:40:40;;;;;;;16.67;7.90;;;;;;;;;;5068269;28;20209;-67
2022/02/26 02:43:05;;;;;;;16.47;7.70;;;;;;;;;;5076712;28;20181;-67
2022/02/26 02:45:31;;;;;;;12.50;7.20;;;;;;;;;;5083342;28;20650;-66
2022/02/26 02:47:56;;;;;;;16.67;8.40;;;;;;;;;;5066536;28;20177;-66
2022/02/26 02:50:21;;;;;;;15.27;8.33;;;;;;;;;;5069626;28;20230;-66
2022/02/26 02:52:47;;;;;;;12.70;8.27;;;;;;;;;;5068922;28;20180;-67
2022/02/26 02:55:14;;;;;;;18.47;8.33;;;;;;;;;;5069531;28;20176;-67
2022/02/26 02:57:40;;;;;;;18.53;8.40;;;;;;;;;;5068250;28;20200;-67
2022/02/26 03:00:05;;;;;;;16.47;8.53;;;;;;;;;;5070817;28;20313;-65
2022/02/26 03:02:31;;;;;;;19.97;8.73;;;;;;;;;;5064703;28;20641;-67
2022/02/26 03:04:56;;;;;;;16.40;8.63;;;;;;;;;;5067028;28;20196;-67
2022/02/26 03:07:21;;;;;;;15.80;8.77;;;;;;;;;;5067167;28;20189;-67
2022/02/26 03:09:46;;;;;;;27.77;9.27;;;;;;;;;;5069060;28;20608;-67
2022/02/26 03:12:11;;;;;;;17.83;8.90;;;;;;;;;;5069602;28;20665;-67
2022/02/26 03:14:37;;;;;;;17.83;8.67;;;;;;;;;;5063257;28;20181;-68
2022/02/26 03:17:02;;;;;;;19.37;8.47;;;;;;;;;;5071245;28;20578;-69
2022/02/26 03:19:27;;;;;;;19.07;7.93;;;;;;;;;;5065288;28;20173;-66
2022/02/26 03:21:53;;;;;;;13.60;8.20;;;;;;;;;;5066445;28;20262;-67
2022/02/26 03:24:18;;;;;;;23.77;8.83;;;;;;;;;;5067958;28;20200;-66
2022/02/26 03:26:43;;;;;;;18.37;8.37;;;;;;;;;;5064999;28;20180;-66
2022/02/26 03:29:09;;;;;;;15.97;8.37;;;;;;;;;;5070158;28;20181;-66
2022/02/26 03:31:34;;;;;;;16.73;8.43;;;;;;;;;;5064459;28;20596;-66
2022/02/26 03:34:00;;;;;;;17.07;8.93;;;;;;;;;;5052280;28;20177;-67
2022/02/26 03:36:27;;;;;;;17.93;9.20;;;;;;;;;;5065668;28;20303;-66
2022/02/26 03:38:52;;;;;;;15.90;8.43;;;;;;;;;;5068280;28;20177;-68
2022/02/26 03:41:18;;;;;;;13.83;10.00;;;;;;;;;;5053835;28;20729;-67
2022/02/26 03:43:43;;;;;;;19.17;8.10;;;;;;;;;;5066219;28;20413;-66
2022/02/26 03:46:08;;;;;;;18.47;8.80;;;;;;;;;;5066130;28;20654;-67
2022/02/26 03:48:33;;;;;;;13.77;8.67;;;;;;;;;;5068064;28;20179;-66
2022/02/26 03:51:04;;;;;;;16.10;8.93;;;;;;;;;;5067665;28;20195;-65
2022/02/26 03:53:29;;;;;;;14.43;8.30;;;;;;;;;;5069575;28;20177;-65
2022/02/26 03:55:54;;;;;;;12.90;8.13;;;;;;;;;;5065263;28;20166;-67
2022/02/26 03:58:20;;;;;;;12.07;8.67;;;;;;;;;;5068398;28;20264;-66
2022/02/26 04:00:45;;;;;;;16.83;8.87;;;;;;;;;;5065002;28;20192;-67
2022/02/26 04:03:10;;;;;;;11.17;8.30;;;;;;;;;;5069725;28;20271;-66
2022/02/26 04:05:35;;;;;;;18.63;8.53;;;;;;;;;;5067487;28;20180;-66
2022/02/26 04:08:00;;;;;;;16.63;8.43;;;;;;;;;;5068475;28;20271;-66
2022/02/26 04:10:25;;;;;;;14.73;7.97;;;;;;;;;;5069123;28;20192;-67
2022/02/26 04:12:51;;;;;;;15.37;8.90;;;;;;;;;;5069007;28;20212;-66
2022/02/26 04:15:16;;;;;;;14.53;7.73;;;;;;;;;;5068950;28;20185;-68
2022/02/26 04:17:41;;;;;;;13.33;8.77;;;;;;;;;;5069735;28;20276;-67
2022/02/26 04:20:06;;;;;;;14.63;8.30;;;;;;;;;;5049976;28;20183;-68
2022/02/26 04:22:31;;;;;;;16.27;9.33;;;;;;;;;;5070169;28;20246;-67
2022/02/26 04:24:57;;;;;;;15.43;8.70;;;;;;;;;;5068208;28;20169;-68
2022/02/26 04:27:22;;;;;;;13.97;8.17;;;;;;;;;;5069050;28;20184;-68
2022/02/26 04:29:47;;;;;;;14.00;8.63;;;;;;;;;;5068921;28;20646;-67
2022/02/26 04:32:13;;;;;;;14.27;9.03;;;;;;;;;;5066595;28;20251;-67
2022/02/26 04:34:38;;;;;;;13.60;8.27;;;;;;;;;;5069838;28;20177;-66
2022/02/26 04:37:03;;;;;;;12.87;8.40;;;;;;;;;;5069734;28;20707;-67
2022/02/26 04:39:29;;;;;;;9.10;8.20;;;;;;;;;;5068489;28;20730;-67
2022/02/26 04:41:54;;;;;;;11.80;7.83;;;;;;;;;;5070679;28;20189;-68
2022/02/26 04:44:19;;;;;;;10.43;8.50;;;;;;;;;;5068001;28;20303;-68
2022/02/26 04:46:44;;;;;;;14.57;8.30;;;;;;;;;;5069480;28;20177;-67
2022/02/26 04:49:09;;;;;;;10.20;8.30;;;;;;;;;;5071872;28;20541;-67
2022/02/26 04:51:34;;;;;;;13.20;8.03;;;;;;;;;;5071408;28;20199;-67
2022/02/26 04:54:00;;;;;;;11.93;8.23;;;;;;;;;;5070185;28;20220;-67
2022/02/26 04:56:25;;;;;;;9.77;7.83;;;;;;;;;;5072432;28;20301;-67
2022/02/26 04:58:50;;;;;;;10.30;7.57;;;;;;;;;;5072286;28;20191;-67
2022/02/26 05:01:15;;;;;;;10.10;7.97;;;;;;;;;;5072595;28;20207;-68
2022/02/26 05:03:41;;;;;;;11.53;7.93;;;;;;;;;;5073548;28;20181;-67
2022/02/26 05:06:06;;;;;;;8.23;7.20;;;;;;;;;;5070918;28;20959;-68
2022/02/26 05:08:31;;;;;;;8.23;6.97;;;;;;;;;;5072204;28;20215;-67
2022/02/26 05:10:56;;;;;;;12.80;7.60;;;;;;;;;;5068445;28;20294;-67
2022/02/26 05:13:21;;;;;;;7.93;6.57;;;;;;;;;;5068727;28;20619;-67
2022/02/26 05:15:47;;;;;;;9.33;7.03;;;;;;;;;;5072826;28;20589;-66
2022/02/26 05:18:12;;;;;;;11.60;6.73;;;;;;;;;;5072355;28;20754;-67
2022/02/26 05:20:37;;;;;;;10.23;6.30;;;;;;;;;;5067901;28;20200;-67
2022/02/26 05:23:02;;;;;;;9.23;6.43;;;;;;;;;;5070573;28;20265;-67
2022/02/26 05:25:27;;;;;;;13.03;6.43;;;;;;;;;;5073157;28;20222;-67
2022/02/26 05:27:53;;;;;;;11.20;6.83;;;;;;;;;;5071937;28;20177;-67
2022/02/26 05:30:18;;;;;;;7.63;6.27;;;;;;;;;;5073184;28;20172;-67
2022/02/26 05:32:43;;;;;;;8.80;6.47;;;;;;;;;;5070674;28;20197;-67
2022/02/26 05:35:09;;;;;;;7.77;6.00;;;;;;;;;;5072366;28;20204;-68
2022/02/26 05:37:34;;;;;;;9.73;6.80;;;;;;;;;;5070867;28;20689;-67
2022/02/26 05:39:59;;;;;;;8.93;5.93;;;;;;;;;;5072542;28;20165;-67
2022/02/26 05:42:25;;;;;;;11.43;6.17;;;;;;;;;;5072067;28;20223;-67
2022/02/26 05:44:50;;;;;;;8.53;6.00;;;;;;;;;;5072250;28;20250;-67
2022/02/26 05:47:15;;;;;;;10.77;6.70;;;;;;;;;;5054732;28;20192;-68
2022/02/26 05:49:40;;;;;;;10.37;6.03;;;;;;;;;;5072710;28;20187;-67
2022/02/26 05:52:06;;;;;;;21.17;7.23;;;;;;;;;;5072056;28;20608;-67
2022/02/26 05:54:31;;;;;;;37.50;8.67;;;;;;;;;;5069900;28;20650;-67
2022/02/26 05:56:56;;;;;;;20.87;7.57;;;;;;;;;;5068772;28;20209;-67
2022/02/26 05:59:21;;;;;;;16.07;7.47;;;;;;;;;;5068535;28;20176;-67
2022/02/26 06:01:47;;;;;;;18.00;7.67;;;;;;;;;;5063630;28;20254;-67
2022/02/26 06:04:12;;;;;;;100.77;14.17;;;;;;;;;;5069350;28;20565;-67
2022/02/26 06:06:37;;;;;;;39.53;10.47;;;;;;;;;;5052329;28;20192;-68
2022/02/26 06:09:02;;;;;;;26.53;10.13;;;;;;;;;;5070854;28;20242;-67
2022/02/26 06:11:27;;;;;;;13.93;7.70;;;;;;;;;;5069551;28;20197;-67
2022/02/26 06:13:53;;;;;;;19.00;8.10;;;;;;;;;;5047928;28;20199;-67
2022/02/26 06:16:18;;;;;;;62.10;11.57;;;;;;;;;;5071864;28;20273;-67
2022/02/26 06:18:43;;;;;;;20.33;9.17;;;;;;;;;;5070980;28;20658;-67
2022/02/26 06:21:08;;;;;;;19.03;8.33;;;;;;;;;;5071447;28;20570;-67
2022/02/26 06:23:34;;;;;;;18.53;8.93;;;;;;;;;;5070586;28;20256;-66
2022/02/26 06:25:59;;;;;;;14.77;6.80;;;;;;;;;;5069306;28;20184;-67
2022/02/26 06:28:24;;;;;;;12.63;6.33;;;;;;;;;;5070549;28;20181;-67
2022/02/26 06:30:49;;;;;;;7.40;5.67;;;;;;;;;;5070726;28;20630;-67
2022/02/26 06:33:15;;;;;;;13.97;7.20;;;;;;;;;;5070490;28;20207;-67
2022/02/26 06:35:41;;;;;;;12.90;7.30;;;;;;;;;;5079112;28;20201;-68
2022/02/26 06:38:06;;;;;;;10.47;6.50;;;;;;;;;;5070684;28;20398;-67
2022/02/26 06:40:31;;;;;;;10.93;6.83;;;;;;;;;;5071340;28;20715;-67
2022/02/26 06:42:56;;;;;;;10.30;6.57;;;;;;;;;;5067475;28;20185;-67
2022/02/26 06:45:22;;;;;;;8.33;6.00;;;;;;;;;;5071457;28;20196;-67
2022/02/26 06:47:47;;;;;;;10.10;6.10;;;;;;;;;;5069602;28;20319;-68
2022/02/26 06:50:12;;;;;;;10.60;6.40;;;;;;;;;;5069741;28;20188;-67
2022/02/26 06:52:38;;;;;;;10.77;7.50;;;;;;;;;;5069327;28;20197;-67
2022/02/26 06:55:03;;;;;;;20.57;8.63;;;;;;;;;;5068314;28;20182;-68
2022/02/26 06:57:28;;;;;;;8.97;7.37;;;;;;;;;;5050457;28;20200;-66
2022/02/26 06:59:54;;;;;;;13.37;8.03;;;;;;;;;;5065930;28;20181;-68
2022/02/26 07:02:19;;;;;;;16.27;8.07;;;;;;;;;;5068786;28;20685;-67
2022/02/26 07:04:44;;;;;;;14.67;8.40;;;;;;;;;;5069129;28;20165;-67
2022/02/26 07:07:09;;;;;;;14.27;9.00;;;;;;;;;;5068411;28;20638;-68
2022/02/26 07:09:35;;;;;;;37.47;11.43;;;;;;;;;;5070851;28;20169;-68
2022/02/26 07:12:00;;;;;;;54.90;12.07;;;;;;;;;;5061260;28;20200;-68
2022/02/26 07:14:25;;;;;;;19.23;11.67;;;;;;;;;;5064879;28;20181;-67
2022/02/26 07:16:50;;;;;;;14.47;10.23;;;;;;;;;;5070457;28;20185;-67
2022/02/26 07:19:16;;;;;;;16.83;11.43;;;;;;;;;;5068004;28;20177;-68
2022/02/26 07:21:41;;;;;;;22.37;11.63;;;;;;;;;;5071659;28;20184;-67
2022/02/26 07:24:06;;;;;;;20.20;12.10;;;;;;;;;;5065877;28;20571;-66
2022/02/26 07:26:32;;;;;;;33.37;13.07;;;;;;;;;;5069999;28;20261;-68
2022/02/26 07:28:57;;;;;;;40.07;14.70;;;;;;;;;;5070157;28;20180;-67
2022/02/26 07:31:23;;;;;;;33.00;16.70;;;;;;;;;;5068063;28;20220;-67
2022/02/26 07:33:48;;;;;;;25.17;16.23;;;;;;;;;;5070184;28;20864;-68
2022/02/26 07:36:13;;;;;;;27.47;15.40;;;;;;;;;;5068019;28;20199;-67
2022/02/26 07:38:39;;;;;;;39.23;18.80;;;;;;;;;;5069232;28;20177;-68
2022/02/26 07:41:06;;;;;;;22.57;16.23;;;;;;;;;;5070639;28;20231;-68
2022/02/26 07:43:31;;;;;;;28.90;17.87;;;;;;;;;;5073606;28;20593;-68
2022/02/26 07:45:58;;;;;;;40.47;20.37;;;;;;;;;;5054377;28;20181;-68
2022/02/26 07:48:23;;;;;;;31.57;19.40;;;;;;;;;;5069353;28;20176;-67
2022/02/26 07:50:48;;;;;;;31.97;21.33;;;;;;;;;;5048613;28;20201;-68
2022/02/26 07:53:13;;;;;;;43.13;22.87;;;;;;;;;;5067791;28;20262;-68
2022/02/26 07:55:38;;;;;;;42.83;23.30;;;;;;;;;;5069909;28;20601;-67
2022/02/26 07:58:04;;;;;;;41.63;23.23;;;;;;;;;;5069637;28;20228;-68
2022/02/26 08:00:30;;;;;;;65.90;23.50;;;;;;;;;;5069478;28;20630;-68
2022/02/26 08:02:55;;;;;;;44.90;23.53;;;;;;;;;;5051339;28;20169;-68
2022/02/26 08:05:20;;;;;;;41.50;22.60;;;;;;;;;;5067399;28;20173;-68
2022/02/26 08:07:45;;;;;;;36.67;22.63;;;;;;;;;;5063419;28;20176;-68
2022/02/26 08:10:11;;;;;;;71.40;25.53;;;;;;;;;;5069269;28;20185;-69
2022/02/26 08:12:36;;;;;;;50.70;25.03;;;;;;;;;;5086516;28;20352;-68
2022/02/26 08:15:01;;;;;;;39.63;23.17;;;;;;;;;;5078406;28;20177;-68
2022/02/26 08:17:26;;;;;;;90.57;27.57;;;;;;;;;;5072810;28;20211;-67
2022/02/26 08:19:51;;;;;;;82.10;28.13;;;;;;;;;;5067685;28;20189;-68
2022/02/26 08:22:17;;;;;;;30.67;22.10;;;;;;;;;;5065734;28;20281;-67
2022/02/26 08:24:42;;;;;;;31.60;22.83;;;;;;;;;;5065128;28;20199;-68
2022/02/26 08:27:07;;;;;;;33.17;23.63;;;;;;;;;;5051360;28;20181;-68
2022/02/26 08:29:32;;;;;;;38.37;23.77;;;;;;;;;;5068545;28;20259;-68
2022/02/26 08:31:58;;;;;;;53.93;23.03;;;;;;;;;;5078408;22;20233;-70
2022/02/26 08:34:23;;;;;;;39.10;24.07;;;;;;;;;;5064598;28;20196;-70
2022/02/26 08:36:49;;;;;;;36.60;23.50;;;;;;;;;;5070054;28;20200;-70
2022/02/26 08:39:14;;;;;;;33.87;21.90;;;;;;;;;;5069826;28;20189;-70
2022/02/26 08:41:39;;;;;;;35.83;22.97;;;;;;;;;;5068077;28;20283;-70
2022/02/26 08:44:05;;;;;;;38.13;24.70;;;;;;;;;;5069331;28;20255;-70
2022/02/26 08:46:30;;;;;;;40.27;25.40;;;;;;;;;;5067339;28;20180;-70
2022/02/26 08:48:57;;;;;;;43.03;24.63;;;;;;;;;;5070133;28;20181;-71
2022/02/26 08:51:22;;;;;;;30.20;22.67;;;;;;;;;;5068899;28;20271;-70
2022/02/26 08:53:47;;;;;;;32.83;21.63;;;;;;;;;;5069484;28;20914;-70
2022/02/26 08:56:12;;;;;;;27.90;20.80;;;;;;;;;;5070882;28;20181;-70
2022/02/26 08:58:37;;;;;;;25.57;20.50;;;;;;;;;;5069658;28;20543;-70
2022/02/26 09:01:03;;;;;;;24.87;19.27;;;;;;;;;;5069292;28;20197;-70
2022/02/26 09:03:28;;;;;;;25.37;19.90;;;;;;;;;;5063465;28;20577;-70
2022/02/26 09:05:53;;;;;;;22.30;18.70;;;;;;;;;;5057577;28;20177;-70
2022/02/26 09:08:18;;;;;;;22.30;17.67;;;;;;;;;;5068390;28;20255;-70
2022/02/26 09:10:44;;;;;;;21.43;17.23;;;;;;;;;;5067303;28;20540;-70
2022/02/26 09:13:09;;;;;;;22.07;16.73;;;;;;;;;;5067058;28;20189;-71
2022/02/26 09:15:34;;;;;;;18.73;15.70;;;;;;;;;;5067567;28;20537;-68
2022/02/26 09:18:00;;;;;;;18.97;14.67;;;;;;;;;;5060367;28;20208;-70
2022/02/26 09:20:25;;;;;;;18.83;13.97;;;;;;;;;;5068845;28;20173;-71
2022/02/26 09:22:50;;;;;;;19.90;14.30;;;;;;;;;;5068986;28;20199;-71
2022/02/26 09:25:16;;;;;;;19.80;13.40;;;;;;;;;;5050658;28;20294;-69
2022/02/26 09:27:43;;;;;;;18.20;11.40;;;;;;;;;;5060928;28;20538;-69
2022/02/26 09:30:09;;;;;;;14.77;11.40;;;;;;;;;;5074141;28;20184;-69
2022/02/26 09:32:34;;;;;;;17.10;10.27;;;;;;;;;;5066975;28;20266;-71
2022/02/26 09:34:59;;;;;;;21.20;12.03;;;;;;;;;;5069044;28;20184;-71
2022/02/26 09:37:25;;;;;;;11.40;8.67;;;;;;;;;;5072606;28;20196;-69
2022/02/26 09:39:51;;;;;;;17.13;8.90;;;;;;;;;;5072210;28;20244;-71
2022/02/26 09:42:19;;;;;;;11.43;7.17;;;;;;;;;;5067654;28;20285;-70
2022/02/26 09:44:45;;;;;;;13.67;8.00;;;;;;;;;;5071992;28;20264;-71
2022/02/26 09:47:10;;;;;;;10.73;6.77;;;;;;;;;;5065446;28;20272;-69
2022/02/26 09:49:35;;;;;;;15.27;7.50;;;;;;;;;;5067114;28;20600;-70
2022/02/26 09:52:00;;;;;;;14.73;6.67;;;;;;;;;;5071453;28;20277;-70
2022/02/26 09:54:26;;;;;;;10.60;7.03;;;;;;;;;;5070639;28;20224;-70
2022/02/26 09:56:52;;;;;;;13.77;6.73;;;;;;;;;;5071880;28;20207;-69
2022/02/26 09:59:17;;;;;;;11.37;6.37;;;;;;;;;;5065380;28;20591;-70
2022/02/26 10:02:05;;;;;;;10.47;5.50;;;;;;;;;;5069671;28;20524;-69
2022/02/26 10:04:31;;;;;;;11.37;7.03;;;;;;;;;;5070239;28;20174;-69
2022/02/26 10:07:13;;;;;;;11.93;5.63;;;;;;;;;;5069493;28;20665;-70
2022/02/26 10:09:39;;;;;;;13.30;6.43;;;;;;;;;;5064811;28;20254;-70
2022/02/26 10:12:16;;;;;;;11.57;6.20;;;;;;;;;;5050537;28;20197;-69
2022/02/26 10:14:41;;;;;;;10.83;6.10;;;;;;;;;;5067673;28;20260;-69
2022/02/26 10:17:06;;;;;;;11.63;5.03;;;;;;;;;;5070604;28;20292;-69
2022/02/26 10:19:32;;;;;;;10.07;5.03;;;;;;;;;;5070761;28;20195;-70
2022/02/26 10:22:03;;;;;;;11.05;4.53;;;;;;;;;;5068835;28;20192;-70
2022/02/26 10:24:28;;;;;;;8.80;5.82;;;;;;;;;;5050907;28;20583;-69
2022/02/26 10:26:55;;;;;;;12.60;6.43;;;;;;;;;;5073235;28;20180;-69
2022/02/26 10:29:24;;;;;;;9.93;4.93;;;;;;;;;;5072181;28;20237;-69
2022/02/26 10:31:51;;;;;;;10.82;5.25;;;;;;;;;;5069500;28;20257;-69
2022/02/26 10:34:22;;;;;;;11.73;5.25;;;;;;;;;;5067225;28;20292;-69
2022/02/26 10:37:01;;;;;;;11.55;5.80;;;;;;;;;;5066827;28;20660;-69
2022/02/26 10:39:31;;;;;;;8.77;4.80;;;;;;;;;;5070610;28;20185;-69
2022/02/26 10:41:56;;;;;;;9.70;4.80;;;;;;;;;;5068875;28;20258;-69
2022/02/26 10:44:21;;;;;;;11.23;4.50;;;;;;;;;;5066393;28;20666;-69
2022/02/26 10:46:47;;;;;;;9.68;5.22;;;;;;;;;;5064521;28;20654;-69
2022/02/26 10:49:14;;;;;;;9.05;4.10;;;;;;;;;;5069341;28;20173;-69
2022/02/26 10:51:41;;;;;;;7.03;3.80;;;;;;;;;;5072374;28;20201;-68
2022/02/26 10:54:09;;;;;;;9.43;4.68;;;;;;;;;;5067973;28;20184;-69
2022/02/26 10:56:41;;;;;;;10.77;5.18;;;;;;;;;;5064841;28;20236;-69
2022/02/26 10:59:08;;;;;;;15.05;5.65;;;;;;;;;;5067243;28;20169;-69
2022/02/26 11:01:33;;;;;;;12.45;5.72;;;;;;;;;;5072418;28;20189;-70
2022/02/26 11:04:01;;;;;;;11.88;8.10;;;;;;;;;;5068901;28;20710;-70
2022/02/26 11:06:26;;;;;;;10.68;5.88;;;;;;;;;;5069893;28;20196;-70
2022/02/26 11:08:52;;;;;;;13.10;6.32;;;;;;;;;;5070783;28;20180;-69
2022/02/26 11:11:18;;;;;;;10.20;6.38;;;;;;;;;;5069293;28;20629;-70
2022/02/26 11:13:44;;;;;;;9.85;4.68;;;;;;;;;;5066589;28;20193;-70
2022/02/26 11:16:09;;;;;;;7.47;3.83;;;;;;;;;;5073778;28;20165;-70
2022/02/26 11:18:41;;;;;;;12.40;4.72;;;;;;;;;;5068876;28;20196;-70
2022/02/26 11:21:08;;;;;;;13.32;5.20;;;;;;;;;;5072067;28;20189;-70
2022/02/26 11:23:34;;;;;;;11.23;5.25;;;;;;;;;;5067941;28;20212;-70
2022/02/26 11:25:59;;;;;;;13.23;5.82;;;;;;;;;;5067288;28;20201;-70
2022/02/26 11:28:24;;;;;;;10.15;6.25;;;;;;;;;;5069051;28;20189;-70
2022/02/26 11:30:54;;;;;;;17.65;8.48;;;;;;;;;;5070652;28;20191;-70
2022/02/26 11:33:19;;;;;;;14.48;8.35;;;;;;;;;;5067664;28;20189;-69
2022/02/26 11:35:54;;;;;;;13.32;7.88;;;;;;;;;;5069003;28;20554;-70
2022/02/26 11:38:22;;;;;;;18.75;8.18;;;;;;;;;;5065308;28;20275;-70
2022/02/26 11:40:47;;;;;;;13.27;7.22;;;;;;;;;;5068426;28;20630;-70
2022/02/26 11:43:32;;;;;;;9.68;6.45;;;;;;;;;;5069375;28;20273;-70
2022/02/26 11:45:57;;;;;;;9.30;5.13;;;;;;;;;;5064177;28;20184;-70
2022/02/26 11:48:22;;;;;;;8.38;5.07;;;;;;;;;;5070389;28;20173;-70
2022/02/26 11:50:50;;;;;;;8.20;4.37;;;;;;;;;;5071003;28;20189;-70
2022/02/26 11:53:16;;;;;;;12.13;5.72;;;;;;;;;;5068015;28;20803;-70
2022/02/26 11:55:41;;;;;;;10.57;6.15;;;;;;;;;;5069814;28;20246;-70
2022/02/26 11:58:09;;;;;;;13.40;7.28;;;;;;;;;;5069164;28;20646;-70
2022/02/26 12:00:45;;;;;;;14.93;8.00;;;;;;;;;;5070389;28;20646;-70
2022/02/26 12:03:29;;;;;;;14.77;6.60;;;;;;;;;;5066981;28;20181;-70
2022/02/26 12:06:17;;;;;;;11.90;6.25;;;;;;;;;;5069619;28;20177;-69
2022/02/26 12:08:49;;;;;;;11.38;6.18;;;;;;;;;;5052997;28;20666;-69
2022/02/26 12:11:18;;;;;;;15.05;6.10;;;;;;;;;;5052022;28;20552;-69
2022/02/26 12:13:46;;;;;;;10.43;5.70;;;;;;;;;;5069464;28;20222;-69
2022/02/26 12:16:20;;;;;;;12.02;5.68;;;;;;;;;;5068684;28;20619;-69
2022/02/26 12:18:53;;;;;;;7.85;4.57;;;;;;;;;;5067289;28;20235;-69
2022/02/26 12:21:19;;;;;;;12.40;5.55;;;;;;;;;;5069363;28;20518;-69
2022/02/26 12:24:01;;;;;;;10.48;6.20;;;;;;;;;;5068966;28;20646;-69
2022/02/26 12:26:45;;;;;;;16.15;5.40;;;;;;;;;;5053529;28;20234;-69
2022/02/26 12:29:25;;;;;;;9.85;5.07;;;;;;;;;;5068768;28;20204;-69
2022/02/26 12:31:55;;;;;;;13.48;5.93;;;;;;;;;;5068721;28;20230;-69
2022/02/26 12:34:20;;;;;;;10.15;4.68;;;;;;;;;;5067878;28;20173;-69
2022/02/26 12:36:52;;;;;;;12.55;4.60;;;;;;;;;;5070755;28;20246;-69
2022/02/26 12:39:25;;;;;;;10.27;4.50;;;;;;;;;;5069746;28;20173;-70
2022/02/26 12:41:51;;;;;;;8.60;4.47;;;;;;;;;;5070917;28;20262;-69
2022/02/26 12:44:17;;;;;;;9.77;4.32;;;;;;;;;;5066629;28;20645;-69
2022/02/26 12:46:43;;;;;;;9.52;4.28;;;;;;;;;;5062448;28;20902;-69
2022/02/26 12:49:08;;;;;;;11.38;5.60;;;;;;;;;;5067504;28;20616;-69
2022/02/26 12:51:33;;;;;;;8.20;4.18;;;;;;;;;;5049486;28;20208;-69
2022/02/26 12:53:59;;;;;;;7.28;3.90;;;;;;;;;;5069868;28;20176;-69
2022/02/26 12:56:34;;;;;;;8.32;4.20;;;;;;;;;;5068146;28;20203;-69
2022/02/26 12:59:29;;;;;;;9.23;3.80;;;;;;;;;;5070111;28;20642;-69
2022/02/26 13:01:54;;;;;;;11.27;4.05;;;;;;;;;;5042250;28;20690;-69
2022/02/26 13:04:21;;;;;;;10.02;3.25;;;;;;;;;;5068426;28;20235;-69
2022/02/26 13:06:51;;;;;;;13.07;3.83;;;;;;;;;;5064335;28;20173;-69
2022/02/26 13:09:16;;;;;;;9.30;3.30;;;;;;;;;;5070276;28;20638;-69
2022/02/26 13:11:45;;;;;;;10.57;4.10;;;;;;;;;;5068610;28;20295;-70
2022/02/26 13:14:10;;;;;;;15.45;5.15;;;;;;;;;;5067643;28;20181;-69
2022/02/26 13:16:35;;;;;;;9.93;2.95;;;;;;;;;;5073330;28;20213;-69
2022/02/26 13:19:00;;;;;;;7.68;3.65;;;;;;;;;;5077753;28;20165;-70
2022/02/26 13:21:34;;;;;;;13.15;4.28;;;;;;;;;;5073798;28;20200;-69
2022/02/26 13:24:01;;;;;;;10.48;4.28;;;;;;;;;;5070089;28;20271;-69
2022/02/26 13:26:27;;;;;;;11.77;4.00;;;;;;;;;;5068964;28;20219;-70
2022/02/26 13:28:54;;;;;;;11.60;3.33;;;;;;;;;;5071464;28;20192;-70
2022/02/26 13:31:20;;;;;;;9.38;3.15;;;;;;;;;;5073232;28;20240;-70
2022/02/26 13:33:45;;;;;;;4.40;2.75;;;;;;;;;;5072693;28;20207;-70
2022/02/26 13:36:12;;;;;;;11.23;3.35;;;;;;;;;;5073329;28;20264;-70
2022/02/26 13:38:37;;;;;;;9.13;3.65;;;;;;;;;;5072960;28;20682;-68
2022/02/26 13:41:09;;;;;;;10.68;3.30;;;;;;;;;;5071068;28;20276;-69
2022/02/26 13:43:34;;;;;;;9.95;3.60;;;;;;;;;;5066335;28;20173;-69
2022/02/26 13:45:59;;;;;;;7.65;4.00;;;;;;;;;;5071723;28;20612;-69
2022/02/26 13:48:25;;;;;;;10.10;3.17;;;;;;;;;;5073776;28;20173;-69
2022/02/26 13:50:52;;;;;;;9.32;3.78;;;;;;;;;;5072677;28;20185;-69
2022/02/26 13:53:20;;;;;;;8.10;2.92;;;;;;;;;;5072970;28;20180;-70
2022/02/26 13:55:58;;;;;;;7.35;3.47;;;;;;;;;;5070081;28;20646;-70
2022/02/26 13:58:27;;;;;;;9.70;4.07;;;;;;;;;;5073117;28;20624;-69
2022/02/26 14:01:06;;;;;;;12.32;4.05;;;;;;;;;;5070452;28;20249;-70
2022/02/26 14:03:35;;;;;;;11.65;3.85;;;;;;;;;;5065201;28;20298;-70
2022/02/26 14:06:05;;;;;;;11.30;4.30;;;;;;;;;;5071695;28;20259;-70
2022/02/26 14:08:30;;;;;;;11.73;5.07;;;;;;;;;;5069559;28;20256;-70
2022/02/26 14:10:56;;;;;;;8.57;4.30;;;;;;;;;;5071707;28;20401;-70
2022/02/26 14:13:21;;;;;;;8.75;4.25;;;;;;;;;;5070673;28;20188;-69
2022/02/26 14:15:48;;;;;;;12.40;4.65;;;;;;;;;;5069023;28;20191;-69
2022/02/26 14:18:23;;;;;;;9.18;4.22;;;;;;;;;;5072540;28;20262;-69
2022/02/26 14:20:49;;;;;;;10.25;3.78;;;;;;;;;;5068853;28;20176;-69
2022/02/26 14:23:14;;;;;;;12.85;4.70;;;;;;;;;;5072266;28;20238;-69
2022/02/26 14:25:43;;;;;;;10.00;4.55;;;;;;;;;;5071297;28;20686;-69